sensor_id;sensor_type;location;lat;lon;timestamp;pressure;altitude;pressure_sealevel;temperature
75658;BMP280;64255;49.892;17.884;2023-03-30T00:00:22;98738.56;;;5.23
75658;BMP280;64255;49.892;17.884;2023-03-30T00:03:18;98718.84;;;5.24
75658;BMP280;64255;49.892;17.884;2023-03-30T00:06:05;98733.69;;;5.21
75658;BMP280;64255;49.892;17.884;2023-03-30T00:08:53;98726.13;;;5.20
75658;BMP280;64255;49.892;17.884;2023-03-30T00:11:40;98720.94;;;5.16
75658;BMP280;64255;49.892;17.884;2023-03-30T00:14:26;98721.03;;;5.12
75658;BMP280;64255;49.892;17.884;2023-03-30T00:17:13;98730.81;;;5.15
75658;BMP280;64255;49.892;17.884;2023-03-30T00:20:00;98728.56;;;5.14
75658;BMP280;64255;49.892;17.884;2023-03-30T00:22:47;98723.25;;;5.14
75658;BMP280;64255;49.892;17.884;2023-03-30T00:25:33;98710.75;;;5.14
75658;BMP280;64255;49.892;17.884;2023-03-30T00:28:20;98721.03;;;5.12
75658;BMP280;64255;49.892;17.884;2023-03-30T00:31:06;98724.03;;;5.14
75658;BMP280;64255;49.892;17.884;2023-03-30T00:33:53;98716.38;;;5.16
75658;BMP280;64255;49.892;17.884;2023-03-30T00:36:39;98708.72;;;5.18
75658;BMP280;64255;49.892;17.884;2023-03-30T00:39:26;98699.69;;;5.16
75658;BMP280;64255;49.892;17.884;2023-03-30T00:42:16;98714.78;;;5.19
75658;BMP280;64255;49.892;17.884;2023-03-30T00:48:09;98701.00;;;5.24
75658;BMP280;64255;49.892;17.884;2023-03-30T00:51:07;98699.91;;;5.22
75658;BMP280;64255;49.892;17.884;2023-03-30T00:54:00;98694.28;;;5.20
75658;BMP280;64255;49.892;17.884;2023-03-30T00:56:49;98695.16;;;5.16
75658;BMP280;64255;49.892;17.884;2023-03-30T00:59:35;98685.28;;;5.17
75658;BMP280;64255;49.892;17.884;2023-03-30T01:02:23;98681.94;;;5.13
75658;BMP280;64255;49.892;17.884;2023-03-30T01:05:09;98688.50;;;5.08
75658;BMP280;64255;49.892;17.884;2023-03-30T01:07:57;98684.69;;;5.09
75658;BMP280;64255;49.892;17.884;2023-03-30T01:10:44;98682.13;;;5.06
75658;BMP280;64255;49.892;17.884;2023-03-30T01:13:35;98695.19;;;5.00
75658;BMP280;64255;49.892;17.884;2023-03-30T01:16:53;98683.91;;;4.96
75658;BMP280;64255;49.892;17.884;2023-03-30T01:26:52;98672.94;;;4.94
75658;BMP280;64255;49.892;17.884;2023-03-30T01:36:36;98674.44;;;4.95
75658;BMP280;64255;49.892;17.884;2023-03-30T01:43:17;98656.97;;;4.97
75658;BMP280;64255;49.892;17.884;2023-03-30T01:46:23;98661.13;;;4.98
75658;BMP280;64255;49.892;17.884;2023-03-30T01:49:44;98659.19;;;4.99
75658;BMP280;64255;49.892;17.884;2023-03-30T01:53:00;98660.69;;;5.00
75658;BMP280;64255;49.892;17.884;2023-03-30T01:59:25;98662.41;;;5.07
75658;BMP280;64255;49.892;17.884;2023-03-30T02:02:16;98658.97;;;5.06
75658;BMP280;64255;49.892;17.884;2023-03-30T02:05:05;98660.22;;;5.01
75658;BMP280;64255;49.892;17.884;2023-03-30T02:08:00;98656.75;;;5.05
75658;BMP280;64255;49.892;17.884;2023-03-30T02:10:52;98653.88;;;4.99
75658;BMP280;64255;49.892;17.884;2023-03-30T02:13:42;98652.28;;;5.01
75658;BMP280;64255;49.892;17.884;2023-03-30T02:16:45;98643.59;;;5.01
75658;BMP280;64255;49.892;17.884;2023-03-30T02:19:32;98644.97;;;5.06
75658;BMP280;64255;49.892;17.884;2023-03-30T02:22:19;98643.41;;;5.08
75658;BMP280;64255;49.892;17.884;2023-03-30T02:25:06;98652.84;;;5.09
75658;BMP280;64255;49.892;17.884;2023-03-30T02:27:53;98650.63;;;5.08
75658;BMP280;64255;49.892;17.884;2023-03-30T02:30:43;98643.91;;;5.03
75658;BMP280;64255;49.892;17.884;2023-03-30T02:47:17;98632.34;;;5.39
75658;BMP280;64255;49.892;17.884;2023-03-30T02:50:24;98620.03;;;5.45
75658;BMP280;64255;49.892;17.884;2023-03-30T02:57:08;98627.19;;;5.61
75658;BMP280;64255;49.892;17.884;2023-03-30T03:00:11;98621.22;;;5.70
75658;BMP280;64255;49.892;17.884;2023-03-30T03:03:18;98616.56;;;5.74
75658;BMP280;64255;49.892;17.884;2023-03-30T03:06:07;98611.38;;;5.71
75658;BMP280;64255;49.892;17.884;2023-03-30T03:08:55;98614.25;;;5.76
75658;BMP280;64255;49.892;17.884;2023-03-30T03:11:41;98611.88;;;5.78
75658;BMP280;64255;49.892;17.884;2023-03-30T03:14:27;98610.09;;;5.75
75658;BMP280;64255;49.892;17.884;2023-03-30T03:17:14;98611.56;;;5.89
75658;BMP280;64255;49.892;17.884;2023-03-30T03:20:04;98611.16;;;5.91
75658;BMP280;64255;49.892;17.884;2023-03-30T03:22:51;98608.72;;;5.96
75658;BMP280;64255;49.892;17.884;2023-03-30T03:25:37;98603.00;;;5.98
75658;BMP280;64255;49.892;17.884;2023-03-30T03:28:24;98598.19;;;6.06
75658;BMP280;64255;49.892;17.884;2023-03-30T03:31:10;98597.63;;;6.11
75658;BMP280;64255;49.892;17.884;2023-03-30T03:33:57;98593.09;;;6.11
75658;BMP280;64255;49.892;17.884;2023-03-30T03:36:43;98593.09;;;6.11
75658;BMP280;64255;49.892;17.884;2023-03-30T03:39:30;98584.22;;;6.14
75658;BMP280;64255;49.892;17.884;2023-03-30T03:42:17;98573.91;;;6.17
75658;BMP280;64255;49.892;17.884;2023-03-30T03:45:04;98596.97;;;6.20
75658;BMP280;64255;49.892;17.884;2023-03-30T03:47:50;98590.81;;;6.23
75658;BMP280;64255;49.892;17.884;2023-03-30T03:50:37;98566.06;;;6.13
75658;BMP280;64255;49.892;17.884;2023-03-30T03:53:26;98570.28;;;6.23
75658;BMP280;64255;49.892;17.884;2023-03-30T03:56:13;98563.25;;;6.29
75658;BMP280;64255;49.892;17.884;2023-03-30T03:58:59;98559.00;;;6.32
75658;BMP280;64255;49.892;17.884;2023-03-30T04:01:46;98542.69;;;6.43
75658;BMP280;64255;49.892;17.884;2023-03-30T04:04:32;98521.66;;;6.36
75658;BMP280;64255;49.892;17.884;2023-03-30T04:07:19;98542.56;;;6.46
75658;BMP280;64255;49.892;17.884;2023-03-30T04:10:07;98539.47;;;6.48
75658;BMP280;64255;49.892;17.884;2023-03-30T04:12:57;98538.75;;;6.48
75658;BMP280;64255;49.892;17.884;2023-03-30T04:15:43;98532.53;;;6.51
75658;BMP280;64255;49.892;17.884;2023-03-30T04:18:31;98522.53;;;6.55
75658;BMP280;64255;49.892;17.884;2023-03-30T04:21:17;98531.81;;;6.50
75658;BMP280;64255;49.892;17.884;2023-03-30T04:24:04;98519.41;;;6.56
75658;BMP280;64255;49.892;17.884;2023-03-30T04:26:51;98525.19;;;6.55
75658;BMP280;64255;49.892;17.884;2023-03-30T04:29:37;98537.94;;;6.60
75658;BMP280;64255;49.892;17.884;2023-03-30T04:32:24;98542.81;;;6.61
75658;BMP280;64255;49.892;17.884;2023-03-30T04:35:11;98533.66;;;6.62
75658;BMP280;64255;49.892;17.884;2023-03-30T04:37:58;98533.03;;;6.58
75658;BMP280;64255;49.892;17.884;2023-03-30T04:40:45;98540.00;;;6.56
75658;BMP280;64255;49.892;17.884;2023-03-30T04:43:31;98543.25;;;6.60
75658;BMP280;64255;49.892;17.884;2023-03-30T04:46:18;98524.63;;;6.60
75658;BMP280;64255;49.892;17.884;2023-03-30T04:49:04;98543.09;;;6.54
75658;BMP280;64255;49.892;17.884;2023-03-30T04:51:50;98545.09;;;6.50
75658;BMP280;64255;49.892;17.884;2023-03-30T04:54:37;98532.13;;;6.52
75658;BMP280;64255;49.892;17.884;2023-03-30T04:57:23;98528.59;;;6.55
75658;BMP280;64255;49.892;17.884;2023-03-30T05:00:10;98519.88;;;6.55
75658;BMP280;64255;49.892;17.884;2023-03-30T05:02:58;98523.50;;;6.48
75658;BMP280;64255;49.892;17.884;2023-03-30T05:05:44;98527.91;;;6.42
75658;BMP280;64255;49.892;17.884;2023-03-30T05:08:31;98505.47;;;6.43
75658;BMP280;64255;49.892;17.884;2023-03-30T05:11:17;98503.97;;;6.42
75658;BMP280;64255;49.892;17.884;2023-03-30T05:14:04;98498.75;;;6.38
75658;BMP280;64255;49.892;17.884;2023-03-30T05:16:50;98497.75;;;6.45
75658;BMP280;64255;49.892;17.884;2023-03-30T05:19:36;98488.75;;;6.42
75658;BMP280;64255;49.892;17.884;2023-03-30T05:22:23;98490.66;;;6.42
75658;BMP280;64255;49.892;17.884;2023-03-30T05:25:09;98486.28;;;6.48
75658;BMP280;64255;49.892;17.884;2023-03-30T05:27:56;98491.66;;;6.57
75658;BMP280;64255;49.892;17.884;2023-03-30T05:30:43;98485.16;;;6.58
75658;BMP280;64255;49.892;17.884;2023-03-30T05:33:30;98476.19;;;6.65
75658;BMP280;64255;49.892;17.884;2023-03-30T05:36:17;98481.69;;;6.71
75658;BMP280;64255;49.892;17.884;2023-03-30T05:39:03;98472.59;;;6.81
75658;BMP280;64255;49.892;17.884;2023-03-30T05:41:50;98470.22;;;6.83
75658;BMP280;64255;49.892;17.884;2023-03-30T05:44:36;98461.38;;;6.86
75658;BMP280;64255;49.892;17.884;2023-03-30T05:47:23;98471.16;;;6.89
75658;BMP280;64255;49.892;17.884;2023-03-30T05:50:10;98468.38;;;6.93
75658;BMP280;64255;49.892;17.884;2023-03-30T05:52:56;98470.16;;;6.96
75658;BMP280;64255;49.892;17.884;2023-03-30T05:55:47;98456.84;;;6.96
75658;BMP280;64255;49.892;17.884;2023-03-30T05:58:34;98451.81;;;6.98
75658;BMP280;64255;49.892;17.884;2023-03-30T06:01:20;98448.59;;;7.03
75658;BMP280;64255;49.892;17.884;2023-03-30T06:04:07;98457.34;;;7.13
75658;BMP280;64255;49.892;17.884;2023-03-30T06:06:53;98451.91;;;7.17
75658;BMP280;64255;49.892;17.884;2023-03-30T06:09:40;98444.06;;;7.22
75658;BMP280;64255;49.892;17.884;2023-03-30T06:12:26;98440.53;;;7.25
75658;BMP280;64255;49.892;17.884;2023-03-30T06:15:13;98441.72;;;7.34
75658;BMP280;64255;49.892;17.884;2023-03-30T06:17:59;98441.34;;;7.45
75658;BMP280;64255;49.892;17.884;2023-03-30T06:20:47;98438.06;;;7.50
75658;BMP280;64255;49.892;17.884;2023-03-30T06:23:34;98441.03;;;7.61
75658;BMP280;64255;49.892;17.884;2023-03-30T06:26:21;98428.47;;;7.71
75658;BMP280;64255;49.892;17.884;2023-03-30T06:29:07;98441.19;;;7.76
75658;BMP280;64255;49.892;17.884;2023-03-30T06:31:54;98434.81;;;7.83
75658;BMP280;64255;49.892;17.884;2023-03-30T06:34:40;98432.03;;;7.96
75658;BMP280;64255;49.892;17.884;2023-03-30T06:37:27;98419.69;;;8.26
75658;BMP280;64255;49.892;17.884;2023-03-30T06:40:13;98438.22;;;8.20
75658;BMP280;64255;49.892;17.884;2023-03-30T06:43:00;98431.13;;;8.69
75658;BMP280;64255;49.892;17.884;2023-03-30T06:45:54;98434.38;;;8.73
75658;BMP280;64255;49.892;17.884;2023-03-30T06:48:41;98447.09;;;8.79
75658;BMP280;64255;49.892;17.884;2023-03-30T06:51:28;98442.59;;;8.94
75658;BMP280;64255;49.892;17.884;2023-03-30T06:54:14;98446.72;;;9.04
75658;BMP280;64255;49.892;17.884;2023-03-30T06:57:01;98438.72;;;8.62
75658;BMP280;64255;49.892;17.884;2023-03-30T06:59:47;98441.38;;;8.62
75658;BMP280;64255;49.892;17.884;2023-03-30T07:02:34;98444.16;;;8.67
75658;BMP280;64255;49.892;17.884;2023-03-30T07:05:20;98424.94;;;8.63
75658;BMP280;64255;49.892;17.884;2023-03-30T07:08:07;98426.13;;;8.62
75658;BMP280;64255;49.892;17.884;2023-03-30T07:10:53;98429.38;;;8.66
75658;BMP280;64255;49.892;17.884;2023-03-30T07:13:40;98425.19;;;8.75
75658;BMP280;64255;49.892;17.884;2023-03-30T07:16:26;98418.06;;;8.71
75658;BMP280;64255;49.892;17.884;2023-03-30T07:19:14;98421.41;;;8.90
75658;BMP280;64255;49.892;17.884;2023-03-30T07:22:00;98422.59;;;9.23
75658;BMP280;64255;49.892;17.884;2023-03-30T07:24:47;98421.75;;;9.07
75658;BMP280;64255;49.892;17.884;2023-03-30T07:27:34;98439.44;;;9.29
75658;BMP280;64255;49.892;17.884;2023-03-30T07:30:21;98460.47;;;9.36
75658;BMP280;64255;49.892;17.884;2023-03-30T07:33:07;98449.19;;;9.56
75658;BMP280;64255;49.892;17.884;2023-03-30T07:35:54;98443.97;;;9.62
75658;BMP280;64255;49.892;17.884;2023-03-30T07:38:40;98450.25;;;9.35
75658;BMP280;64255;49.892;17.884;2023-03-30T07:41:27;98455.75;;;9.31
75658;BMP280;64255;49.892;17.884;2023-03-30T07:44:13;98455.81;;;9.22
75658;BMP280;64255;49.892;17.884;2023-03-30T07:47:00;98461.94;;;9.13
75658;BMP280;64255;49.892;17.884;2023-03-30T07:49:46;98457.00;;;9.21
75658;BMP280;64255;49.892;17.884;2023-03-30T07:52:33;98457.75;;;9.21
75658;BMP280;64255;49.892;17.884;2023-03-30T07:55:19;98451.03;;;9.26
75658;BMP280;64255;49.892;17.884;2023-03-30T07:58:06;98441.22;;;9.32
75658;BMP280;64255;49.892;17.884;2023-03-30T08:00:52;98424.06;;;9.24
75658;BMP280;64255;49.892;17.884;2023-03-30T08:03:39;98423.47;;;9.20
75658;BMP280;64255;49.892;17.884;2023-03-30T08:06:27;98419.06;;;9.17
75658;BMP280;64255;49.892;17.884;2023-03-30T08:09:14;98430.63;;;9.14
75658;BMP280;64255;49.892;17.884;2023-03-30T08:12:00;98430.00;;;9.19
75658;BMP280;64255;49.892;17.884;2023-03-30T08:14:47;98420.94;;;9.26
75658;BMP280;64255;49.892;17.884;2023-03-30T08:17:33;98422.97;;;9.31
75658;BMP280;64255;49.892;17.884;2023-03-30T08:20:20;98404.53;;;9.33
75658;BMP280;64255;49.892;17.884;2023-03-30T08:23:08;98375.25;;;9.38
75658;BMP280;64255;49.892;17.884;2023-03-30T08:25:57;98386.53;;;9.43
75658;BMP280;64255;49.892;17.884;2023-03-30T08:28:43;98392.09;;;9.54
75658;BMP280;64255;49.892;17.884;2023-03-30T08:31:30;98398.69;;;9.44
75658;BMP280;64255;49.892;17.884;2023-03-30T08:34:16;98393.44;;;9.49
75658;BMP280;64255;49.892;17.884;2023-03-30T08:37:03;98387.63;;;9.51
75658;BMP280;64255;49.892;17.884;2023-03-30T08:39:49;98380.97;;;9.46
75658;BMP280;64255;49.892;17.884;2023-03-30T08:46:18;98398.56;;;9.77
75658;BMP280;64255;49.892;17.884;2023-03-30T08:49:13;98390.94;;;9.85
75658;BMP280;64255;49.892;17.884;2023-03-30T08:52:03;98391.94;;;10.02
75658;BMP280;64255;49.892;17.884;2023-03-30T08:54:51;98361.63;;;9.91
75658;BMP280;64255;49.892;17.884;2023-03-30T08:58:08;98360.19;;;10.25
75658;BMP280;64255;49.892;17.884;2023-03-30T09:01:27;98362.03;;;10.69
75658;BMP280;64255;49.892;17.884;2023-03-30T09:08:29;98359.69;;;10.77
75658;BMP280;64255;49.892;17.884;2023-03-30T09:11:35;98365.13;;;10.83
75658;BMP280;64255;49.892;17.884;2023-03-30T09:14:40;98349.38;;;10.70
75658;BMP280;64255;49.892;17.884;2023-03-30T09:20:42;98352.53;;;10.68
75658;BMP280;64255;49.892;17.884;2023-03-30T09:23:31;98326.69;;;10.65
75658;BMP280;64255;49.892;17.884;2023-03-30T09:26:40;98324.22;;;10.82
75658;BMP280;64255;49.892;17.884;2023-03-30T09:29:41;98333.66;;;11.45
75658;BMP280;64255;49.892;17.884;2023-03-30T09:32:41;98333.16;;;11.73
75658;BMP280;64255;49.892;17.884;2023-03-30T09:35:41;98325.16;;;12.11
75658;BMP280;64255;49.892;17.884;2023-03-30T09:38:30;98326.50;;;11.95
75658;BMP280;64255;49.892;17.884;2023-03-30T09:41:50;98325.16;;;12.11
75658;BMP280;64255;49.892;17.884;2023-03-30T09:48:06;98304.13;;;12.03
75658;BMP280;64255;49.892;17.884;2023-03-30T09:50:53;98293.00;;;12.22
75658;BMP280;64255;49.892;17.884;2023-03-30T09:53:42;98278.72;;;12.42
75658;BMP280;64255;49.892;17.884;2023-03-30T09:56:43;98281.22;;;12.14
75658;BMP280;64255;49.892;17.884;2023-03-30T09:59:35;98266.59;;;12.15
75658;BMP280;64255;49.892;17.884;2023-03-30T10:02:26;98266.28;;;12.50
75658;BMP280;64255;49.892;17.884;2023-03-30T10:05:17;98252.03;;;12.27
75658;BMP280;64255;49.892;17.884;2023-03-30T10:08:19;98261.38;;;12.43
75658;BMP280;64255;49.892;17.884;2023-03-30T10:11:06;98250.44;;;12.58
75658;BMP280;64255;49.892;17.884;2023-03-30T10:13:53;98249.50;;;12.67
75658;BMP280;64255;49.892;17.884;2023-03-30T10:16:43;98244.88;;;12.79
75658;BMP280;64255;49.892;17.884;2023-03-30T10:19:33;98249.97;;;12.71
75658;BMP280;64255;49.892;17.884;2023-03-30T10:22:21;98248.28;;;12.74
75658;BMP280;64255;49.892;17.884;2023-03-30T10:25:18;98245.88;;;12.98
75658;BMP280;64255;49.892;17.884;2023-03-30T10:28:29;98253.94;;;12.98
75658;BMP280;64255;49.892;17.884;2023-03-30T10:31:16;98247.56;;;12.90
75658;BMP280;64255;49.892;17.884;2023-03-30T10:34:15;98254.22;;;13.29
75658;BMP280;64255;49.892;17.884;2023-03-30T10:37:39;98241.53;;;13.41
75658;BMP280;64255;49.892;17.884;2023-03-30T10:40:38;98251.06;;;13.42
75658;BMP280;64255;49.892;17.884;2023-03-30T10:43:30;98261.31;;;13.43
75658;BMP280;64255;49.892;17.884;2023-03-30T10:46:20;98253.41;;;13.90
75658;BMP280;64255;49.892;17.884;2023-03-30T10:49:28;98241.22;;;14.43
75658;BMP280;64255;49.892;17.884;2023-03-30T11:05:51;98225.47;;;14.58
75658;BMP280;64255;49.892;17.884;2023-03-30T11:08:45;98210.25;;;14.61
75658;BMP280;64255;49.892;17.884;2023-03-30T11:15:01;98203.69;;;14.56
75658;BMP280;64255;49.892;17.884;2023-03-30T11:18:12;98196.63;;;14.47
75658;BMP280;64255;49.892;17.884;2023-03-30T11:21:20;98189.78;;;14.52
75658;BMP280;64255;49.892;17.884;2023-03-30T11:24:13;98203.34;;;14.29
75658;BMP280;64255;49.892;17.884;2023-03-30T11:27:15;98193.25;;;14.41
75658;BMP280;64255;49.892;17.884;2023-03-30T11:30:16;98192.78;;;14.37
75658;BMP280;64255;49.892;17.884;2023-03-30T11:36:44;98189.78;;;14.04
75658;BMP280;64255;49.892;17.884;2023-03-30T11:39:40;98173.44;;;13.91
75658;BMP280;64255;49.892;17.884;2023-03-30T11:42:31;98172.25;;;13.81
75658;BMP280;64255;49.892;17.884;2023-03-30T11:52:28;98160.59;;;13.44
75658;BMP280;64255;49.892;17.884;2023-03-30T11:55:47;98174.56;;;13.37
75658;BMP280;64255;49.892;17.884;2023-03-30T11:58:47;98173.09;;;13.25
75658;BMP280;64255;49.892;17.884;2023-03-30T12:02:23;98190.69;;;13.20
75658;BMP280;64255;49.892;17.884;2023-03-30T12:05:37;98199.00;;;12.99
75658;BMP280;64255;49.892;17.884;2023-03-30T12:12:14;98197.25;;;12.79
75658;BMP280;64255;49.892;17.884;2023-03-30T12:16:14;98188.47;;;12.73
75658;BMP280;64255;49.892;17.884;2023-03-30T12:22:22;98183.09;;;12.67
75658;BMP280;64255;49.892;17.884;2023-03-30T12:25:42;98170.88;;;12.61
75658;BMP280;64255;49.892;17.884;2023-03-30T12:34:41;98175.44;;;12.37
75658;BMP280;64255;49.892;17.884;2023-03-30T12:37:32;98185.16;;;12.18
75658;BMP280;64255;49.892;17.884;2023-03-30T12:40:20;98187.53;;;12.04
75658;BMP280;64255;49.892;17.884;2023-03-30T12:44:02;98180.66;;;11.98
75658;BMP280;64255;49.892;17.884;2023-03-30T13:03:42;98206.56;;;11.58
75658;BMP280;64255;49.892;17.884;2023-03-30T13:06:36;98218.94;;;11.55
75658;BMP280;64255;49.892;17.884;2023-03-30T13:09:28;98234.78;;;11.53
75658;BMP280;64255;49.892;17.884;2023-03-30T13:12:34;98236.16;;;11.43
75658;BMP280;64255;49.892;17.884;2023-03-30T13:15:40;98221.50;;;11.38
75658;BMP280;64255;49.892;17.884;2023-03-30T13:18:39;98224.66;;;11.36
75658;BMP280;64255;49.892;17.884;2023-03-30T13:21:26;98239.97;;;11.36
75658;BMP280;64255;49.892;17.884;2023-03-30T13:36:14;98264.38;;;10.85
75658;BMP280;64255;49.892;17.884;2023-03-30T13:42:48;98270.84;;;10.79
75658;BMP280;64255;49.892;17.884;2023-03-30T13:52:17;98272.81;;;10.58
75658;BMP280;64255;49.892;17.884;2023-03-30T13:55:31;98259.56;;;10.48
75658;BMP280;64255;49.892;17.884;2023-03-30T13:58:31;98263.81;;;10.40
75658;BMP280;64255;49.892;17.884;2023-03-30T14:01:21;98259.16;;;10.35
75658;BMP280;64255;49.892;17.884;2023-03-30T14:04:11;98244.50;;;10.30
75658;BMP280;64255;49.892;17.884;2023-03-30T14:07:03;98250.41;;;10.19
75658;BMP280;64255;49.892;17.884;2023-03-30T14:10:17;98255.88;;;10.10
75658;BMP280;64255;49.892;17.884;2023-03-30T14:13:08;98248.25;;;10.03
75658;BMP280;64255;49.892;17.884;2023-03-30T14:15:57;98240.44;;;9.99
75658;BMP280;64255;49.892;17.884;2023-03-30T14:18:44;98234.53;;;9.95
75658;BMP280;64255;49.892;17.884;2023-03-30T14:21:31;98213.59;;;9.94
75658;BMP280;64255;49.892;17.884;2023-03-30T14:24:30;98213.59;;;9.94
75658;BMP280;64255;49.892;17.884;2023-03-30T14:27:17;98212.41;;;9.95
75658;BMP280;64255;49.892;17.884;2023-03-30T14:30:27;98210.47;;;9.95
75658;BMP280;64255;49.892;17.884;2023-03-30T14:33:14;98212.88;;;9.93
75658;BMP280;64255;49.892;17.884;2023-03-30T14:36:01;98198.84;;;9.98
75658;BMP280;64255;49.892;17.884;2023-03-30T14:38:51;98180.41;;;10.00
75658;BMP280;64255;49.892;17.884;2023-03-30T14:41:38;98186.28;;;10.04
75658;BMP280;64255;49.892;17.884;2023-03-30T14:44:25;98176.06;;;10.03
75658;BMP280;64255;49.892;17.884;2023-03-30T14:47:14;98170.25;;;10.04
75658;BMP280;64255;49.892;17.884;2023-03-30T14:50:05;98155.63;;;10.00
75658;BMP280;64255;49.892;17.884;2023-03-30T14:52:54;98147.38;;;10.03
75658;BMP280;64255;49.892;17.884;2023-03-30T14:55:42;98144.22;;;10.05
75658;BMP280;64255;49.892;17.884;2023-03-30T14:58:31;98140.34;;;10.06
75658;BMP280;64255;49.892;17.884;2023-03-30T15:01:26;98137.41;;;10.04
75658;BMP280;64255;49.892;17.884;2023-03-30T15:04:16;98143.22;;;10.02
75658;BMP280;64255;49.892;17.884;2023-03-30T15:07:03;98142.03;;;10.03
75658;BMP280;64255;49.892;17.884;2023-03-30T15:09:56;98149.31;;;10.03
75658;BMP280;64255;49.892;17.884;2023-03-30T15:12:45;98147.66;;;10.05
75658;BMP280;64255;49.892;17.884;2023-03-30T15:15:32;98144.69;;;10.03
75658;BMP280;64255;49.892;17.884;2023-03-30T15:18:25;98138.88;;;10.05
75658;BMP280;64255;49.892;17.884;2023-03-30T15:21:13;98138.88;;;10.05
75658;BMP280;64255;49.892;17.884;2023-03-30T15:24:00;98132.06;;;10.04
75658;BMP280;64255;49.892;17.884;2023-03-30T15:26:49;98114.81;;;10.05
75658;BMP280;64255;49.892;17.884;2023-03-30T15:29:39;98118.69;;;10.04
75658;BMP280;64255;49.892;17.884;2023-03-30T15:32:37;98110.47;;;10.08
75658;BMP280;64255;49.892;17.884;2023-03-30T15:35:33;98098.31;;;10.07
75658;BMP280;64255;49.892;17.884;2023-03-30T15:38:30;98088.88;;;10.11
75658;BMP280;64255;49.892;17.884;2023-03-30T15:41:44;98072.63;;;10.15
75658;BMP280;64255;49.892;17.884;2023-03-30T15:44:41;98067.88;;;10.04
75658;BMP280;64255;49.892;17.884;2023-03-30T15:47:29;98063.06;;;10.08
75658;BMP280;64255;49.892;17.884;2023-03-30T15:50:25;98060.16;;;10.12
75658;BMP280;64255;49.892;17.884;2023-03-30T15:53:31;98029.28;;;10.11
75658;BMP280;64255;49.892;17.884;2023-03-30T15:59:43;97997.63;;;10.03
75658;BMP280;64255;49.892;17.884;2023-03-30T16:05:21;98013.06;;;9.94
75658;BMP280;64255;49.892;17.884;2023-03-30T16:08:08;98018.69;;;9.96
75658;BMP280;64255;49.892;17.884;2023-03-30T16:10:54;98016.75;;;9.96
75658;BMP280;64255;49.892;17.884;2023-03-30T16:13:44;98021.16;;;9.99
75658;BMP280;64255;49.892;17.884;2023-03-30T16:16:34;98039.94;;;9.84
75658;BMP280;64255;49.892;17.884;2023-03-30T16:19:20;98038.81;;;9.91
75658;BMP280;64255;49.892;17.884;2023-03-30T16:22:08;98040.78;;;9.91
75658;BMP280;64255;49.892;17.884;2023-03-30T16:24:55;98045.09;;;9.88
75658;BMP280;64255;49.892;17.884;2023-03-30T16:27:42;98051.09;;;9.83
75658;BMP280;64255;49.892;17.884;2023-03-30T16:30:34;98044.03;;;10.00
75658;BMP280;64255;49.892;17.884;2023-03-30T16:33:21;98055.63;;;9.97
75658;BMP280;64255;49.892;17.884;2023-03-30T16:36:17;98062.03;;;10.00
75658;BMP280;64255;49.892;17.884;2023-03-30T16:42:10;98056.72;;;10.05
75658;BMP280;64255;49.892;17.884;2023-03-30T16:44:56;98066.94;;;10.07
75658;BMP280;64255;49.892;17.884;2023-03-30T16:47:43;98055.00;;;9.82
75658;BMP280;64255;49.892;17.884;2023-03-30T16:50:36;98036.19;;;9.55
75658;BMP280;64255;49.892;17.884;2023-03-30T16:53:23;98060.22;;;9.70
75658;BMP280;64255;49.892;17.884;2023-03-30T16:56:17;98073.97;;;9.84
75658;BMP280;64255;49.892;17.884;2023-03-30T16:59:05;98059.78;;;9.78
75658;BMP280;64255;49.892;17.884;2023-03-30T17:01:52;98064.22;;;9.81
75658;BMP280;64255;49.892;17.884;2023-03-30T17:04:38;98053.56;;;10.07
75658;BMP280;64255;49.892;17.884;2023-03-30T17:07:25;98048.03;;;9.90
75658;BMP280;64255;49.892;17.884;2023-03-30T17:10:28;98052.19;;;9.91
75658;BMP280;64255;49.892;17.884;2023-03-30T17:13:15;98032.47;;;9.88
75658;BMP280;64255;49.892;17.884;2023-03-30T17:16:02;98036.69;;;9.95
75658;BMP280;64255;49.892;17.884;2023-03-30T17:18:48;98067.81;;;9.98
75658;BMP280;64255;49.892;17.884;2023-03-30T17:21:35;98065.34;;;9.95
75658;BMP280;64255;49.892;17.884;2023-03-30T17:24:21;98068.47;;;9.93
75658;BMP280;64255;49.892;17.884;2023-03-30T17:27:08;98091.34;;;9.94
75658;BMP280;64255;49.892;17.884;2023-03-30T17:29:55;98084.19;;;10.06
75658;BMP280;64255;49.892;17.884;2023-03-30T17:32:42;98082.53;;;10.09
75658;BMP280;64255;49.892;17.884;2023-03-30T17:35:28;98077.91;;;10.09
75658;BMP280;64255;49.892;17.884;2023-03-30T17:38:15;98080.09;;;10.11
75658;BMP280;64255;49.892;17.884;2023-03-30T17:41:02;98094.75;;;10.15
75658;BMP280;64255;49.892;17.884;2023-03-30T17:43:49;98086.47;;;10.13
75658;BMP280;64255;49.892;17.884;2023-03-30T17:46:35;98105.25;;;10.19
75658;BMP280;64255;49.892;17.884;2023-03-30T17:49:22;98113.75;;;10.17
75658;BMP280;64255;49.892;17.884;2023-03-30T17:52:08;98117.91;;;10.18
75658;BMP280;64255;49.892;17.884;2023-03-30T17:54:57;98117.41;;;10.20
75658;BMP280;64255;49.892;17.884;2023-03-30T17:57:44;98130.78;;;10.20
75658;BMP280;64255;49.892;17.884;2023-03-30T18:00:32;98130.53;;;10.18
75658;BMP280;64255;49.892;17.884;2023-03-30T18:03:21;98132.94;;;10.16
75658;BMP280;64255;49.892;17.884;2023-03-30T18:06:10;98141.38;;;10.09
75658;BMP280;64255;49.892;17.884;2023-03-30T18:08:57;98125.44;;;9.99
75658;BMP280;64255;49.892;17.884;2023-03-30T18:11:43;98116.97;;;10.01
75658;BMP280;64255;49.892;17.884;2023-03-30T18:14:30;98105.78;;;10.02
75658;BMP280;64255;49.892;17.884;2023-03-30T18:17:17;98103.91;;;9.88
75658;BMP280;64255;49.892;17.884;2023-03-30T18:20:33;98086.81;;;9.80
75658;BMP280;64255;49.892;17.884;2023-03-30T18:23:21;98100.91;;;9.80
75658;BMP280;64255;49.892;17.884;2023-03-30T18:26:11;98102.28;;;9.76
75658;BMP280;64255;49.892;17.884;2023-03-30T18:28:58;98093.47;;;9.69
75658;BMP280;64255;49.892;17.884;2023-03-30T18:31:47;98090.00;;;9.63
75658;BMP280;64255;49.892;17.884;2023-03-30T18:34:33;98091.94;;;9.63
75658;BMP280;64255;49.892;17.884;2023-03-30T18:37:20;98070.81;;;9.65
75658;BMP280;64255;49.892;17.884;2023-03-30T18:43:17;98093.31;;;9.58
75658;BMP280;64255;49.892;17.884;2023-03-30T18:46:03;98090.19;;;9.60
75658;BMP280;64255;49.892;17.884;2023-03-30T18:48:50;98087.22;;;9.58